Impacts METAR Board
IDs:

KTPA - Tampa Intl Arpt, FL, US

Updated at: 1400 UTC 19 Jan 2019
Potential Impact None Slight Moderate High
Time 19/02Z 19/03Z 19/04Z 19/05Z 19/06Z 19/07Z 19/08Z 19/09Z 19/10Z 19/11Z 19/12Z 19/13Z 19/14Z
Temp59 60 59 59 59 59 59 60 60 59 59 59 61
Dewpt44 46 47 46 44 45 47 51 53 53 54 54 54
Altim30.13 30.13 30.13 30.12 30.11 30.09 30.07 30.06 30.06 30.04 30.04 30.04 30.05
VIS10 10 10 10 9 10 10 10 10 10 10 10 10
CIG-- -- -- -- -- -- -- -- -- -- 320 140 230
CoverSCTSCTFEWFEWFEWFEWFEWFEWFEWFEWBKNBKNBKN
FltCatVFRVFRVFRVFRVFRVFRVFRVFRVFRVFRVFRVFRVFR
WX--------------------------
WDir36020700800100140140120130140140
WSpd3 3 3 0 3 0 3 4 5 3 4 4 5
WGst-- -- -- -- -- -- -- -- -- -- -- -- --
Raw hourly METARs
KTPA 190153Z 36003KT 10SM SCT320 15/07 A3013 RMK AO2 SLP203 T01500067
KTPA 190253Z 02003KT 10SM SCT320 16/08 A3013 RMK AO2 SLP201 T01560078 50004
KTPA 190353Z 07003KT 10SM FEW320 15/08 A3013 RMK AO2 SLP202 T01500083
KTPA 190453Z 00000KT 10SM FEW320 15/08 A3012 RMK AO2 SLP199 T01500078 402220100
KTPA 190553Z 08003KT 9SM FEW320 15/07 A3011 RMK AO2 SLP195 T01500067 10172 20144 58006
KTPA 190653Z 00000KT 10SM FEW320 15/07 A3009 RMK AO2 SLP189 T01500072
KTPA 190753Z 10003KT 10SM FEW320 15/08 A3007 RMK AO2 SLP183 T01500083
KTPA 190853Z 14004KT 10SM FEW320 16/11 A3006 RMK AO2 SLP180 T01560106 56015
KTPA 190953Z 14005KT 10SM FEW320 16/12 A3006 RMK AO2 SLP177 T01560117
KTPA 191053Z 12003KT 10SM FEW320 15/12 A3004 RMK AO2 SLP174 T01500117
KTPA 191153Z 13004KT 10SM BKN320 15/12 A3004 RMK AO2 SLP172 T01500122 10156 20128 56008
KTPA 191253Z 14004KT 10SM BKN140 BKN230 15/12 A3004 RMK AO2 SLP173 T01500122
KTPA 191353Z 14005KT 10SM SCT190 BKN230 16/12 A3005 RMK AO2 SLP177 T01610122



Page loaded:  14:59 UTC  |   06:59 AM Pacific  |   07:59 AM Mountain  |   08:59 AM Central  |   09:59 AM Eastern

 

ADVISORIES

FORECASTS

FORECASTS

OBSERVATIONS

USER TOOLS

ABOUT US